createdAt,value
2022-10-23T00:01:29.081Z,70.00
2022-10-23T00:04:03.737Z,70.00
2022-10-23T00:06:32.441Z,70.00
2022-10-23T00:08:59.393Z,70.00
2022-10-23T00:11:28.623Z,70.00
2022-10-23T00:13:57.687Z,70.10
2022-10-23T00:16:24.488Z,70.10
2022-10-23T00:18:51.083Z,70.00
2022-10-23T00:21:18.232Z,70.10
2022-10-23T00:23:45.672Z,70.00
2022-10-23T00:26:16.476Z,70.20
2022-10-23T00:28:45.346Z,70.10
2022-10-23T00:31:12.736Z,70.10
2022-10-23T00:33:39.395Z,70.10
2022-10-23T00:36:10.907Z,70.30
2022-10-23T00:38:38.751Z,70.90
2022-10-23T00:41:06.753Z,70.30
2022-10-23T00:43:34.508Z,70.30
2022-10-23T00:46:01.152Z,70.30
2022-10-23T00:48:28.690Z,70.30
2022-10-23T00:50:56.413Z,70.20
2022-10-23T00:53:23.604Z,70.30
2022-10-23T00:55:53.087Z,70.30
2022-10-23T00:58:20.974Z,70.30
2022-10-23T01:00:53.474Z,70.30
2022-10-23T01:03:22.759Z,70.30
2022-10-23T01:05:55.549Z,70.30
2022-10-23T01:09:03.516Z,70.30
2022-10-23T01:11:37.864Z,70.40
2022-10-23T01:14:29.759Z,70.30
2022-10-23T01:17:12.405Z,70.30
2022-10-23T01:19:50.998Z,70.40
2022-10-23T01:22:49.759Z,70.30
2022-10-23T01:25:32.055Z,70.40
2022-10-23T01:28:06.482Z,70.30
2022-10-23T01:30:35.894Z,70.40
2022-10-23T01:33:14.857Z,70.50
2022-10-23T01:35:50.373Z,70.40
2022-10-23T01:38:27.262Z,70.40
2022-10-23T01:41:02.945Z,70.40
2022-10-23T01:43:44.147Z,70.40
2022-10-23T01:46:14.952Z,70.30
2022-10-23T01:48:45.937Z,70.30
2022-10-23T01:51:14.252Z,70.40
2022-10-23T01:53:43.161Z,70.30
2022-10-23T01:56:18.419Z,70.30
2022-10-23T01:58:48.648Z,70.30
2022-10-23T02:01:18.142Z,70.40
2022-10-23T02:03:45.925Z,70.40
2022-10-23T02:06:12.881Z,70.50
2022-10-23T02:08:40.022Z,70.30
2022-10-23T02:11:13.061Z,70.20
2022-10-23T02:13:55.414Z,70.20
2022-10-23T02:16:42.496Z,70.20
2022-10-23T02:19:41.795Z,70.20
2022-10-23T02:22:14.213Z,70.20
2022-10-23T02:25:01.610Z,70.20
2022-10-23T02:27:40.480Z,70.20
2022-10-23T02:30:09.709Z,70.30
2022-10-23T02:32:40.317Z,70.20
2022-10-23T02:35:07.625Z,70.10
2022-10-23T02:37:34.333Z,70.20
2022-10-23T02:40:01.657Z,70.20
2022-10-23T02:42:35.686Z,70.10
2022-10-23T02:45:08.996Z,70.10
2022-10-23T02:48:07.261Z,70.20
2022-10-23T02:50:57.966Z,70.20
2022-10-23T02:53:30.683Z,70.30
2022-10-23T02:56:29.016Z,70.10
2022-10-23T02:59:24.620Z,70.10
2022-10-23T03:01:58.393Z,70.20
2022-10-23T03:04:28.073Z,70.90
2022-10-23T03:06:55.692Z,70.10
2022-10-23T03:09:22.272Z,70.00
2022-10-23T03:11:48.867Z,70.20
2022-10-23T03:14:15.726Z,70.00
2022-10-23T03:16:42.305Z,70.00
2022-10-23T03:19:09.372Z,70.10
2022-10-23T03:21:36.091Z,70.20
2022-10-23T03:24:02.759Z,70.10
2022-10-23T03:26:29.359Z,70.20
2022-10-23T03:28:56.030Z,70.00
2022-10-23T03:31:22.634Z,69.90
2022-10-23T03:33:49.203Z,70.00
2022-10-23T03:36:15.766Z,70.20
2022-10-23T03:38:42.396Z,70.00
2022-10-23T03:41:08.965Z,70.00
2022-10-23T03:43:35.583Z,70.20
2022-10-23T03:46:02.574Z,70.00
2022-10-23T03:48:29.268Z,70.00
2022-10-23T03:50:55.823Z,69.90
2022-10-23T03:53:22.499Z,69.90
2022-10-23T03:55:49.120Z,70.00
2022-10-23T03:58:15.718Z,70.00
2022-10-23T04:03:09.808Z,70.20
2022-10-23T04:05:36.387Z,70.00
2022-10-23T04:08:03.009Z,70.20
2022-10-23T04:10:29.605Z,70.10
2022-10-23T04:12:56.192Z,70.10
2022-10-23T04:15:22.869Z,70.10
2022-10-23T04:17:49.516Z,70.00
2022-10-23T04:20:16.215Z,70.00
2022-10-23T04:22:42.941Z,70.20
2022-10-23T04:25:09.797Z,70.20
2022-10-23T04:27:36.555Z,70.10
2022-10-23T04:30:03.773Z,69.90
2022-10-23T04:32:31.285Z,69.90
2022-10-23T04:34:57.920Z,70.00
2022-10-23T04:37:24.583Z,70.10
2022-10-23T04:39:51.199Z,69.90
2022-10-23T04:42:17.868Z,69.90
2022-10-23T04:44:44.475Z,70.00
2022-10-23T04:47:11.063Z,69.90
2022-10-23T04:49:37.657Z,69.80
2022-10-23T04:52:04.344Z,69.80
2022-10-23T04:54:37.091Z,69.90
2022-10-23T04:57:03.768Z,69.90
2022-10-23T04:59:30.448Z,69.90
2022-10-23T05:01:57.095Z,69.80
2022-10-23T05:04:23.763Z,69.80
2022-10-23T05:06:50.417Z,69.70
2022-10-23T05:09:17.203Z,69.70
2022-10-23T05:11:43.766Z,69.70
2022-10-23T05:14:10.628Z,69.70
2022-10-23T05:16:48.312Z,69.70
2022-10-23T05:19:24.465Z,69.70
2022-10-23T05:21:55.657Z,69.70
2022-10-23T05:24:25.757Z,69.70
2022-10-23T05:26:53.147Z,69.80
2022-10-23T05:29:20.535Z,69.70
2022-10-23T05:31:50.131Z,69.70
2022-10-23T05:34:20.388Z,69.90
2022-10-23T05:36:47.231Z,69.80
2022-10-23T05:39:14.040Z,69.80
2022-10-23T05:41:40.690Z,69.70
2022-10-23T05:44:07.309Z,69.60
2022-10-23T05:46:33.928Z,69.70
2022-10-23T05:49:00.535Z,69.70
2022-10-23T05:51:27.168Z,69.60
2022-10-23T05:53:55.240Z,69.60
2022-10-23T05:56:21.811Z,69.60
2022-10-23T05:58:48.505Z,69.60
2022-10-23T06:01:15.576Z,69.60
2022-10-23T06:03:42.265Z,69.60
2022-10-23T06:06:08.950Z,69.60
2022-10-23T06:08:35.684Z,69.60
2022-10-23T06:11:10.752Z,60.60
2022-10-23T06:13:38.013Z,60.50
2022-10-23T06:16:19.009Z,62.80
2022-10-23T06:18:46.235Z,63.20
2022-10-23T06:21:13.443Z,63.80
2022-10-23T06:23:41.599Z,64.20
2022-10-23T06:26:10.343Z,64.30
2022-10-23T06:28:36.975Z,66.00
2022-10-23T06:31:08.448Z,64.50
2022-10-23T06:33:35.955Z,63.50
2022-10-23T06:36:04.012Z,63.40
2022-10-23T06:38:36.525Z,63.60
2022-10-23T06:41:04.789Z,63.70
2022-10-23T06:43:31.459Z,64.00
2022-10-23T06:46:02.270Z,64.10
2022-10-23T06:48:28.851Z,64.30
2022-10-23T06:50:55.866Z,64.40
2022-10-23T06:53:24.763Z,64.60
2022-10-23T06:55:54.577Z,64.80
2022-10-23T06:58:22.236Z,64.90
2022-10-23T07:00:48.876Z,65.10
2022-10-23T07:03:15.594Z,65.30
2022-10-23T07:05:44.706Z,65.40
2022-10-23T07:08:11.445Z,65.50
2022-10-23T07:10:38.069Z,65.70
2022-10-23T07:13:04.827Z,65.70
2022-10-23T07:15:31.456Z,65.80
2022-10-23T07:17:58.062Z,65.90
2022-10-23T07:20:24.653Z,66.30
2022-10-23T07:22:55.868Z,66.30
2022-10-23T07:25:26.839Z,66.30
2022-10-23T07:27:55.701Z,66.40
2022-10-23T07:30:22.717Z,66.50
2022-10-23T07:32:49.331Z,66.70
2022-10-23T07:35:17.219Z,66.60
2022-10-23T07:37:44.267Z,67.00
2022-10-23T07:40:12.236Z,66.90
2022-10-23T07:42:38.894Z,67.10
2022-10-23T07:45:07.383Z,67.90
2022-10-23T07:47:34.287Z,67.30
2022-10-23T07:50:01.085Z,67.40
2022-10-23T07:52:31.962Z,67.40
2022-10-23T07:55:01.961Z,67.50
2022-10-23T07:57:28.582Z,67.50
2022-10-23T07:59:55.265Z,67.60
2022-10-23T08:02:21.985Z,67.70
2022-10-23T08:04:49.861Z,67.80
2022-10-23T08:07:16.453Z,67.70
2022-10-23T08:09:43.072Z,67.80
2022-10-23T08:12:10.029Z,67.80
2022-10-23T08:14:36.707Z,67.80
2022-10-23T08:17:04.873Z,67.90
2022-10-23T08:19:31.971Z,68.00
2022-10-23T08:21:58.562Z,68.00
2022-10-23T08:24:25.195Z,68.00
2022-10-23T08:26:51.855Z,68.10
2022-10-23T08:29:18.495Z,68.10
2022-10-23T08:31:45.064Z,68.10
2022-10-23T08:34:11.887Z,68.10
2022-10-23T08:36:39.253Z,68.10
2022-10-23T08:39:06.529Z,68.20
2022-10-23T08:41:42.775Z,68.30
2022-10-23T08:44:30.892Z,68.30
2022-10-23T08:47:18.380Z,68.30
2022-10-23T08:50:02.063Z,68.30
2022-10-23T08:52:45.015Z,68.40
2022-10-23T08:55:44.472Z,68.40
2022-10-23T08:58:38.920Z,68.40
2022-10-23T09:01:49.315Z,68.50
2022-10-23T09:04:16.747Z,68.50
2022-10-23T09:06:48.543Z,68.40
2022-10-23T09:09:55.103Z,68.40
2022-10-23T09:12:24.300Z,68.40
2022-10-23T09:15:16.232Z,68.50
2022-10-23T09:17:43.944Z,68.50
2022-10-23T09:20:13.661Z,69.30
2022-10-23T09:22:41.965Z,68.60
2022-10-23T09:25:10.962Z,68.60
2022-10-23T09:27:38.257Z,68.70
2022-10-23T09:30:05.505Z,68.70
2022-10-23T09:32:34.124Z,68.40
2022-10-23T09:35:01.098Z,61.80
2022-10-23T09:37:31.136Z,61.10
2022-10-23T09:40:12.623Z,61.30
2022-10-23T09:42:51.077Z,60.30
2022-10-23T09:45:29.421Z,60.40
2022-10-23T09:48:17.749Z,60.80
2022-10-23T09:50:56.865Z,60.50
2022-10-23T09:53:35.042Z,61.00
2022-10-23T09:56:26.711Z,61.00
2022-10-23T09:59:13.948Z,61.10
2022-10-23T10:01:51.188Z,63.20
2022-10-23T10:04:18.509Z,62.70
2022-10-23T10:06:45.562Z,62.90
2022-10-23T10:09:15.132Z,62.40
2022-10-23T10:11:49.637Z,63.30
2022-10-23T10:14:43.859Z,63.40
2022-10-23T10:17:31.900Z,63.30
2022-10-23T10:20:08.042Z,63.30
2022-10-23T10:22:49.395Z,63.30
2022-10-23T10:25:27.459Z,63.30
2022-10-23T10:28:00.593Z,63.60
2022-10-23T10:30:36.936Z,64.00
2022-10-23T10:33:15.032Z,63.90
2022-10-23T10:35:51.044Z,63.90
2022-10-23T10:38:46.077Z,64.20
2022-10-23T10:41:22.674Z,64.80
2022-10-23T10:44:00.714Z,64.70
2022-10-23T10:46:59.379Z,64.90
2022-10-23T10:49:40.836Z,65.40
2022-10-23T10:52:49.173Z,65.20
2022-10-23T10:55:26.636Z,65.30
2022-10-23T10:58:01.089Z,65.50
2022-10-23T11:00:30.488Z,65.70
2022-10-23T11:03:39.860Z,66.00
2022-10-23T11:06:14.986Z,66.20
2022-10-23T11:08:56.276Z,66.50
2022-10-23T11:11:32.013Z,66.70
2022-10-23T11:13:59.012Z,66.70
2022-10-23T11:16:36.636Z,66.90
2022-10-23T11:19:14.347Z,67.00
2022-10-23T11:21:53.861Z,67.30
2022-10-23T11:24:23.238Z,68.10
2022-10-23T11:27:23.459Z,67.80
2022-10-23T11:30:16.443Z,67.70
2022-10-23T11:33:11.084Z,69.00
2022-10-23T11:35:52.773Z,68.60
2022-10-23T11:38:29.275Z,68.30
2022-10-23T11:41:03.542Z,68.30
2022-10-23T11:43:46.828Z,68.60
2022-10-23T11:46:25.677Z,68.60
2022-10-23T11:48:53.866Z,68.70
2022-10-23T11:51:36.666Z,68.90
2022-10-23T11:54:15.311Z,69.00
2022-10-23T11:57:10.119Z,69.10
2022-10-23T11:59:50.257Z,69.20
2022-10-23T12:02:31.724Z,69.20
2022-10-23T12:05:07.860Z,69.20
2022-10-23T12:07:37.658Z,69.40
2022-10-23T12:10:34.121Z,69.40
2022-10-23T12:13:26.118Z,69.90
2022-10-23T12:15:58.514Z,69.60
2022-10-23T12:18:27.510Z,69.40
2022-10-23T12:21:00.939Z,69.60
2022-10-23T12:23:48.221Z,69.70
2022-10-23T12:26:35.956Z,69.70
2022-10-23T12:29:21.461Z,69.80
2022-10-23T12:32:03.078Z,69.90
2022-10-23T12:34:51.315Z,69.90
2022-10-23T12:37:41.127Z,70.00
2022-10-23T12:40:10.011Z,70.10
2022-10-23T12:42:37.609Z,70.00
2022-10-23T12:45:10.109Z,70.20
2022-10-23T12:50:24.466Z,70.70
2022-10-23T12:52:56.420Z,70.30
2022-10-23T12:55:23.954Z,70.30
2022-10-23T12:57:50.883Z,70.30
2022-10-23T13:00:21.440Z,70.30
2022-10-23T13:03:01.692Z,70.30
2022-10-23T13:05:29.410Z,70.70
2022-10-23T13:07:58.062Z,70.00
2022-10-23T13:10:25.675Z,70.00
2022-10-23T13:12:58.765Z,70.00
2022-10-23T13:15:26.671Z,71.10
2022-10-23T13:17:53.204Z,70.00
2022-10-23T13:20:27.687Z,70.00
2022-10-23T13:23:00.704Z,70.00
2022-10-23T13:25:33.535Z,70.00
2022-10-23T13:28:08.745Z,70.50
2022-10-23T13:30:42.946Z,70.30
2022-10-23T13:33:22.991Z,70.20
2022-10-23T13:36:00.648Z,70.20
2022-10-23T13:38:36.581Z,70.30
2022-10-23T13:41:05.368Z,70.40
2022-10-23T13:43:33.258Z,70.50
2022-10-23T13:46:00.906Z,70.70
2022-10-23T13:48:28.050Z,70.80
2022-10-23T13:50:58.143Z,71.30
2022-10-23T13:53:24.698Z,70.30
2022-10-23T13:55:54.951Z,70.80
2022-10-23T13:58:24.524Z,70.80
2022-10-23T14:00:51.344Z,71.10
2022-10-23T14:03:18.500Z,71.20
2022-10-23T14:05:45.091Z,71.20
2022-10-23T14:08:11.675Z,71.80
2022-10-23T14:10:38.262Z,71.70
2022-10-23T14:13:04.878Z,71.60
2022-10-23T14:15:31.482Z,71.50
2022-10-23T14:17:59.599Z,71.50
2022-10-23T14:20:28.719Z,71.60
2022-10-23T14:22:55.375Z,71.70
2022-10-23T14:25:22.963Z,71.70
2022-10-23T14:27:49.590Z,71.70
2022-10-23T14:30:16.297Z,71.70
2022-10-23T14:32:44.064Z,72.00
2022-10-23T14:35:10.885Z,72.20
2022-10-23T14:37:37.792Z,71.90
2022-10-23T14:40:05.263Z,72.20
2022-10-23T14:42:34.248Z,72.20
2022-10-23T14:45:05.005Z,72.30
2022-10-23T14:47:32.082Z,72.30
2022-10-23T14:49:58.627Z,72.20
2022-10-23T14:52:25.267Z,72.50
2022-10-23T14:54:55.815Z,72.50
2022-10-23T14:57:22.621Z,72.40
2022-10-23T14:59:49.895Z,72.50
2022-10-23T15:02:17.676Z,72.60
2022-10-23T15:04:44.424Z,72.70
2022-10-23T15:07:10.994Z,72.40
2022-10-23T15:09:39.513Z,72.50
2022-10-23T15:12:07.110Z,72.70
2022-10-23T15:14:34.418Z,72.80
2022-10-23T15:17:01.122Z,73.00
2022-10-23T15:19:27.697Z,72.90
2022-10-23T15:21:54.343Z,73.00
2022-10-23T15:24:21.002Z,73.00
2022-10-23T15:26:48.446Z,70.80
2022-10-23T15:29:15.669Z,67.50
2022-10-23T15:31:45.701Z,67.90
2022-10-23T15:34:16.282Z,68.30
2022-10-23T15:36:44.767Z,68.80
2022-10-23T15:39:11.741Z,67.90
2022-10-23T15:41:40.080Z,69.30
2022-10-23T15:44:07.828Z,68.80
2022-10-23T15:46:35.036Z,69.00
2022-10-23T15:49:01.973Z,69.10
2022-10-23T15:51:28.634Z,69.10
2022-10-23T15:53:56.930Z,69.20
2022-10-23T15:56:24.815Z,69.70
2022-10-23T15:58:51.566Z,69.80
2022-10-23T16:01:18.687Z,70.00
2022-10-23T16:03:45.651Z,69.90
2022-10-23T16:06:14.919Z,70.20
2022-10-23T16:08:43.870Z,70.30
2022-10-23T16:11:19.962Z,70.40
2022-10-23T16:13:47.515Z,70.40
2022-10-23T16:16:14.835Z,70.70
2022-10-23T16:18:43.555Z,70.90
2022-10-23T16:21:18.986Z,71.10
2022-10-23T16:23:45.870Z,71.20
2022-10-23T16:26:12.519Z,71.10
2022-10-23T16:28:39.426Z,71.40
2022-10-23T16:31:11.162Z,71.40
2022-10-23T16:33:37.796Z,71.40
2022-10-23T16:36:06.139Z,71.40
2022-10-23T16:38:32.859Z,71.60
2022-10-23T16:41:01.488Z,71.80
2022-10-23T16:43:30.338Z,71.90
2022-10-23T16:46:20.441Z,72.00
2022-10-23T16:48:47.657Z,71.90
2022-10-23T16:51:17.530Z,71.90
2022-10-23T16:53:45.049Z,71.90
2022-10-23T16:56:15.020Z,71.90
2022-10-23T16:58:42.801Z,71.90
2022-10-23T17:01:16.683Z,71.90
2022-10-23T17:03:49.399Z,71.50
2022-10-23T17:06:22.523Z,66.80
2022-10-23T17:08:49.433Z,66.00
2022-10-23T17:11:24.945Z,66.50
2022-10-23T17:13:59.213Z,66.10
2022-10-23T17:16:51.126Z,65.70
2022-10-23T17:19:40.119Z,65.60
2022-10-23T17:22:11.106Z,64.90
2022-10-23T17:24:39.098Z,64.60
2022-10-23T17:27:06.071Z,64.20
2022-10-23T17:29:32.788Z,66.40
2022-10-23T17:31:59.388Z,65.40
2022-10-23T17:34:26.224Z,64.40
2022-10-23T17:36:55.069Z,64.50
2022-10-23T17:39:25.159Z,63.00
2022-10-23T17:41:52.158Z,62.60
2022-10-23T17:44:19.031Z,63.20
2022-10-23T17:46:45.736Z,64.20
2022-10-23T17:49:12.968Z,65.00
2022-10-23T17:51:40.095Z,65.50
2022-10-23T17:54:08.947Z,65.70
2022-10-23T17:56:37.567Z,66.00
2022-10-23T17:59:11.365Z,66.50
2022-10-23T18:01:39.282Z,66.30
2022-10-23T18:04:07.413Z,66.60
2022-10-23T18:06:40.075Z,66.70
2022-10-23T18:09:07.140Z,67.00
2022-10-23T18:11:36.778Z,67.20
2022-10-23T18:14:04.707Z,67.30
2022-10-23T18:16:31.322Z,68.20
2022-10-23T18:19:01.270Z,67.50
2022-10-23T18:21:28.476Z,67.80
2022-10-23T18:23:55.120Z,67.90
2022-10-23T18:26:27.802Z,68.00
2022-10-23T18:28:58.175Z,68.10
2022-10-23T18:31:27.129Z,68.10
2022-10-23T18:33:59.578Z,68.20
2022-10-23T18:36:28.862Z,68.30
2022-10-23T18:41:28.021Z,68.50
2022-10-23T18:43:54.908Z,68.60
2022-10-23T18:46:22.070Z,68.70
2022-10-23T18:48:50.834Z,68.60
2022-10-23T18:51:20.906Z,68.70
2022-10-23T18:53:47.869Z,68.70
2022-10-23T18:56:16.157Z,68.80
2022-10-23T18:58:42.750Z,68.90
2022-10-23T19:01:09.508Z,68.90
2022-10-23T19:03:36.253Z,68.90
2022-10-23T19:06:05.211Z,69.00
2022-10-23T19:08:31.861Z,69.50
2022-10-23T19:11:00.260Z,69.50
2022-10-23T19:13:27.197Z,69.60
2022-10-23T19:15:54.229Z,69.20
2022-10-23T19:18:21.145Z,69.30
2022-10-23T19:20:48.515Z,69.40
2022-10-23T19:23:16.065Z,69.50
2022-10-23T19:25:45.369Z,69.30
2022-10-23T19:28:11.995Z,69.70
2022-10-23T19:30:39.945Z,69.20
2022-10-23T19:33:06.590Z,69.30
2022-10-23T19:35:33.971Z,69.20
2022-10-23T19:38:00.754Z,69.80
2022-10-23T19:40:27.410Z,70.20
2022-10-23T19:42:54.257Z,70.10
2022-10-23T19:45:21.114Z,70.60
2022-10-23T19:47:48.187Z,70.20
2022-10-23T19:50:14.880Z,70.30
2022-10-23T19:52:41.474Z,70.30
2022-10-23T19:55:08.903Z,70.40
2022-10-23T19:57:36.934Z,70.60
2022-10-23T20:00:06.359Z,71.00
2022-10-23T20:05:08.502Z,71.50
2022-10-23T20:07:36.975Z,71.80
2022-10-23T20:10:05.840Z,71.40
2022-10-23T20:12:32.798Z,71.70
2022-10-23T20:14:59.639Z,71.90
2022-10-23T20:17:26.415Z,71.80
2022-10-23T20:19:53.023Z,70.40
2022-10-23T20:22:20.158Z,69.60
2022-10-23T20:24:49.601Z,70.50
2022-10-23T20:27:24.198Z,71.50
2022-10-23T20:29:53.514Z,71.60
2022-10-23T20:32:20.084Z,71.70
2022-10-23T20:34:49.764Z,71.40
2022-10-23T20:37:16.361Z,70.90
2022-10-23T20:39:44.302Z,70.90
2022-10-23T20:42:10.866Z,71.60
2022-10-23T20:44:37.867Z,71.50
2022-10-23T20:47:04.576Z,72.00
2022-10-23T20:49:31.276Z,71.80
2022-10-23T20:51:59.338Z,72.40
2022-10-23T20:54:29.023Z,71.50
2022-10-23T20:56:56.902Z,71.50
2022-10-23T20:59:23.880Z,71.70
2022-10-23T21:01:53.247Z,71.50
2022-10-23T21:04:23.163Z,71.80
2022-10-23T21:07:08.981Z,71.70
2022-10-23T21:09:37.645Z,71.50
2022-10-23T21:12:04.504Z,71.40
2022-10-23T21:14:33.965Z,71.40
2022-10-23T21:17:00.711Z,71.30
2022-10-23T21:19:27.537Z,71.30
2022-10-23T21:21:55.021Z,71.40
2022-10-23T21:24:22.015Z,71.40
2022-10-23T21:26:48.578Z,72.10
2022-10-23T21:29:19.697Z,71.30
2022-10-23T21:31:59.220Z,71.30
2022-10-23T21:34:27.042Z,71.60
2022-10-23T21:37:12.449Z,71.50
2022-10-23T21:39:39.887Z,71.70
2022-10-23T21:42:06.783Z,71.80
2022-10-23T21:44:33.552Z,72.00
2022-10-23T21:47:01.660Z,71.90
2022-10-23T21:49:28.368Z,72.00
2022-10-23T21:51:55.184Z,72.00
2022-10-23T21:54:22.010Z,72.00
2022-10-23T21:56:51.118Z,72.00
2022-10-23T21:59:20.291Z,72.00
2022-10-23T22:01:48.470Z,71.90
2022-10-23T22:04:19.431Z,72.00
2022-10-23T22:06:48.020Z,72.10
2022-10-23T22:09:18.884Z,71.90
2022-10-23T22:11:45.703Z,72.00
2022-10-23T22:14:12.295Z,71.80
2022-10-23T22:16:42.017Z,72.00
2022-10-23T22:19:10.821Z,71.80
2022-10-23T22:21:37.510Z,72.00
2022-10-23T22:26:38.784Z,72.10
2022-10-23T22:29:09.621Z,71.80
2022-10-23T22:31:37.212Z,72.00
2022-10-23T22:34:18.535Z,71.90
2022-10-23T22:36:53.776Z,71.90
2022-10-23T22:39:20.557Z,71.90
2022-10-23T22:41:47.706Z,71.90
2022-10-23T22:44:15.065Z,71.90
2022-10-23T22:46:42.570Z,72.10
2022-10-23T22:49:09.331Z,72.00
2022-10-23T22:51:37.511Z,71.90
2022-10-23T22:54:04.212Z,71.90
2022-10-23T22:56:32.088Z,71.90
2022-10-23T22:58:58.714Z,71.80
2022-10-23T23:01:35.372Z,71.90
2022-10-23T23:04:13.786Z,72.00
2022-10-23T23:06:48.656Z,71.90
2022-10-23T23:09:17.956Z,71.90
2022-10-23T23:11:51.268Z,71.80
2022-10-23T23:14:22.036Z,71.90
2022-10-23T23:16:50.506Z,71.90
2022-10-23T23:19:17.040Z,71.90
2022-10-23T23:21:43.575Z,71.90
2022-10-23T23:24:11.964Z,71.90
2022-10-23T23:26:39.545Z,71.80
2022-10-23T23:29:06.171Z,71.90
2022-10-23T23:31:33.021Z,71.80
2022-10-23T23:33:59.624Z,71.80
2022-10-23T23:36:28.145Z,71.80
2022-10-23T23:38:56.988Z,71.80
2022-10-23T23:41:24.504Z,71.90
2022-10-23T23:43:52.923Z,71.80
2022-10-23T23:46:19.559Z,71.90
2022-10-23T23:48:48.729Z,71.90
2022-10-23T23:51:24.288Z,71.70
2022-10-23T23:53:51.157Z,71.80
2022-10-23T23:56:18.290Z,71.80
2022-10-23T23:58:44.934Z,71.70
